Airfield :







YOU CAN JOIN US ON...

 
LOGIN :

Register | Disclaimer

   EN    FR    IT 

 









Legend :    VFR   Marginal VFR   IFR   Intensive IFR   Very Intensive IFR
Visi :
Ceiling :
>= 8 km
>= 3000ft
5 to 8 km
1000 to 3000 ft
1500m to 5 km
500 to 1000 ft
800 to 1500m
200 to 500 ft
< 800m
< 200 ft
Symbols :   Thunderstorms  Fog  Heavy snow  Heavy precipitations  Wind > 20 kt






- Airport Elevation : 193 ft
- IATA code : ZBF


CZBF - Bathurst

CURRENT METAR :
  • 271400Z AUTO 06008G17KT 9SM -SN OVC018 M05/M08 A3014 RMK SLP212

EXPIRED METARs :
  • 271343Z AUTO 07012G18KT 030V090 9SM -SN OVC016 M05/M08 A3016 RMK SLP217
  • 271300Z AUTO 05008KT 8SM -SN OVC018 M05/M07 A3019 RMK SLP227
  • 271231Z AUTO 07009G16KT 6SM -SN OVC016 M05/M07 A3018 RMK SLP224
  • 271200Z AUTO 06011G17KT 4SM -SN SCT012 OVC020 M05/M07 A3019 RMK SLP228

TAF TAF CZBF
Valid from the 27 at 14:00 until the 28 at 02:00 UTC


271338Z 2714/2802 05010KT P6SM OVC015
TEMPO 2714/2717 4SM -SN
BECMG 2714/2716 07012G22KT
FM271700 07015G25KT 6SM -SN OVC015
TEMPO 2717/2718 2SM -SN
FM271800 07015G25KT 2SM -SN OVC012
TEMPO 2718/2720 3/4SM -SN BLSN VV005
FM272000 07018G28KT 3/4SM -SN BLSN VV005 RMK FCST BASED ON AUTO OBS. NXT FCST BY 272000Z



MET'MAP, your aeronautical weather chart ! - Copyright ORBIFLY December 2007 - Disclaimer

ORBIFLY MET'MAP TEAM :

Programming & Development : Alexandra Zaïnal
Concept & original design : Baudouin d'Aumeries
Assistance for programming : Marc-Olivier Méhu
Technical & hardware support : Manuel Goepfert

Contact : metmap@orbifly.com




SOURCES & CREDITS :

   NOAA